sensor_id;sensor_type;location;lat;lon;timestamp;temperature;humidity
10704;DHT22;5403;41.730;13.142;2022-11-23T10:47:38;21.40;99.90
10704;DHT22;5403;41.730;13.142;2022-11-23T10:50:25;21.40;99.90
10704;DHT22;5403;41.730;13.142;2022-11-23T10:52:56;21.40;99.90
10704;DHT22;5403;41.730;13.142;2022-11-23T10:55:27;21.40;99.90
10704;DHT22;5403;41.730;13.142;2022-11-23T10:57:56;21.40;99.90
10704;DHT22;5403;41.730;13.142;2022-11-23T11:00:26;21.40;99.90
10704;DHT22;5403;41.730;13.142;2022-11-23T11:05:36;21.60;99.20
10704;DHT22;5403;41.730;13.142;2022-11-23T11:08:14;21.60;99.90
10704;DHT22;5403;41.730;13.142;2022-11-23T11:10:45;21.60;99.40
10704;DHT22;5403;41.730;13.142;2022-11-23T11:13:23;21.60;99.60
10704;DHT22;5403;41.730;13.142;2022-11-23T11:15:54;21.70;99.10
10704;DHT22;5403;41.730;13.142;2022-11-23T11:18:25;21.80;99.30
10704;DHT22;5403;41.730;13.142;2022-11-23T11:21:02;22.00;99.10
10704;DHT22;5403;41.730;13.142;2022-11-23T11:23:31;22.10;98.30
10704;DHT22;5403;41.730;13.142;2022-11-23T11:26:04;22.20;98.50
10704;DHT22;5403;41.730;13.142;2022-11-23T11:28:37;22.20;98.00
10704;DHT22;5403;41.730;13.142;2022-11-23T11:31:36;22.40;97.90
10704;DHT22;5403;41.730;13.142;2022-11-23T11:34:15;22.40;96.60
10704;DHT22;5403;41.730;13.142;2022-11-23T11:36:52;22.50;97.70
10704;DHT22;5403;41.730;13.142;2022-11-23T11:39:26;22.60;97.60
10704;DHT22;5403;41.730;13.142;2022-11-23T11:41:59;22.70;97.50
10704;DHT22;5403;41.730;13.142;2022-11-23T11:44:28;22.80;97.40
10704;DHT22;5403;41.730;13.142;2022-11-23T11:47:03;22.90;97.20
10704;DHT22;5403;41.730;13.142;2022-11-23T11:49:36;23.00;96.90
10704;DHT22;5403;41.730;13.142;2022-11-23T11:52:12;23.10;96.80
10704;DHT22;5403;41.730;13.142;2022-11-23T11:54:45;23.10;96.60
10704;DHT22;5403;41.730;13.142;2022-11-23T11:57:20;23.10;96.70
10704;DHT22;5403;41.730;13.142;2022-11-23T11:59:49;23.20;96.60
10704;DHT22;5403;41.730;13.142;2022-11-23T12:02:21;23.30;96.40
10704;DHT22;5403;41.730;13.142;2022-11-23T12:04:59;23.30;96.20
10704;DHT22;5403;41.730;13.142;2022-11-23T12:07:32;23.30;95.90
10704;DHT22;5403;41.730;13.142;2022-11-23T12:10:09;23.30;95.70
10704;DHT22;5403;41.730;13.142;2022-11-23T12:12:39;23.10;95.40
10704;DHT22;5403;41.730;13.142;2022-11-23T12:15:15;22.90;95.80
10704;DHT22;5403;41.730;13.142;2022-11-23T12:18:05;22.80;95.40
10704;DHT22;5403;41.730;13.142;2022-11-23T12:20:41;22.70;95.10
10704;DHT22;5403;41.730;13.142;2022-11-23T12:23:23;22.50;95.80
10704;DHT22;5403;41.730;13.142;2022-11-23T12:26:06;22.40;95.60
10704;DHT22;5403;41.730;13.142;2022-11-23T12:28:46;22.40;95.90
10704;DHT22;5403;41.730;13.142;2022-11-23T12:31:25;22.30;96.00
10704;DHT22;5403;41.730;13.142;2022-11-23T12:34:09;22.40;96.30
10704;DHT22;5403;41.730;13.142;2022-11-23T12:36:58;22.30;96.10
10704;DHT22;5403;41.730;13.142;2022-11-23T12:39:59;22.20;95.60
10704;DHT22;5403;41.730;13.142;2022-11-23T12:42:33;22.20;95.60
10704;DHT22;5403;41.730;13.142;2022-11-23T12:45:22;22.20;96.80
10704;DHT22;5403;41.730;13.142;2022-11-23T12:47:58;22.30;96.60
10704;DHT22;5403;41.730;13.142;2022-11-23T12:50:32;22.30;96.70
10704;DHT22;5403;41.730;13.142;2022-11-23T12:53:23;22.30;96.50
10704;DHT22;5403;41.730;13.142;2022-11-23T12:56:04;22.30;95.50
10704;DHT22;5403;41.730;13.142;2022-11-23T12:58:37;22.20;96.10
10704;DHT22;5403;41.730;13.142;2022-11-23T13:01:11;22.00;96.30
10704;DHT22;5403;41.730;13.142;2022-11-23T13:04:12;21.90;96.30
10704;DHT22;5403;41.730;13.142;2022-11-23T13:07:12;21.70;95.00
10704;DHT22;5403;41.730;13.142;2022-11-23T13:10:12;21.40;95.50
10704;DHT22;5403;41.730;13.142;2022-11-23T13:13:09;21.20;96.10
10704;DHT22;5403;41.730;13.142;2022-11-23T13:16:05;21.00;96.10
10704;DHT22;5403;41.730;13.142;2022-11-23T13:18:47;20.70;96.30
10704;DHT22;5403;41.730;13.142;2022-11-23T13:21:26;20.70;97.10
10704;DHT22;5403;41.730;13.142;2022-11-23T13:23:56;20.60;97.40
10704;DHT22;5403;41.730;13.142;2022-11-23T13:26:24;20.40;97.40
10704;DHT22;5403;41.730;13.142;2022-11-23T13:28:55;20.30;97.40
10704;DHT22;5403;41.730;13.142;2022-11-23T13:31:26;20.30;97.60
10704;DHT22;5403;41.730;13.142;2022-11-23T13:33:57;20.30;97.70
10704;DHT22;5403;41.730;13.142;2022-11-23T13:36:38;20.20;97.80
10704;DHT22;5403;41.730;13.142;2022-11-23T13:42:21;20.10;96.70
10704;DHT22;5403;41.730;13.142;2022-11-23T13:48:20;19.80;97.10
10704;DHT22;5403;41.730;13.142;2022-11-23T13:50:58;19.70;97.20
10704;DHT22;5403;41.730;13.142;2022-11-23T13:53:30;19.60;97.90
10704;DHT22;5403;41.730;13.142;2022-11-23T13:56:17;19.50;98.60
10704;DHT22;5403;41.730;13.142;2022-11-23T13:58:52;19.50;98.40
10704;DHT22;5403;41.730;13.142;2022-11-23T14:01:59;19.50;98.90
10704;DHT22;5403;41.730;13.142;2022-11-23T14:04:28;19.40;97.90
10704;DHT22;5403;41.730;13.142;2022-11-23T14:07:00;19.30;99.00
10704;DHT22;5403;41.730;13.142;2022-11-23T14:09:34;19.20;98.90
10704;DHT22;5403;41.730;13.142;2022-11-23T14:12:11;19.10;98.80
10704;DHT22;5403;41.730;13.142;2022-11-23T14:14:51;19.00;99.00
10704;DHT22;5403;41.730;13.142;2022-11-23T14:17:45;18.90;99.00
10704;DHT22;5403;41.730;13.142;2022-11-23T14:20:31;18.80;98.40
10704;DHT22;5403;41.730;13.142;2022-11-23T14:26:10;18.60;99.60
10704;DHT22;5403;41.730;13.142;2022-11-23T14:28:51;18.50;99.20
10704;DHT22;5403;41.730;13.142;2022-11-23T14:31:26;18.30;99.40
10704;DHT22;5403;41.730;13.142;2022-11-23T14:34:06;18.20;99.60
10704;DHT22;5403;41.730;13.142;2022-11-23T14:36:42;18.00;99.60
10704;DHT22;5403;41.730;13.142;2022-11-23T14:42:12;17.70;99.40
10704;DHT22;5403;41.730;13.142;2022-11-23T14:44:41;17.50;99.90
